CheckWX is a tool to help pilots better visualize weather data.  It is not intended as a substitute for an official pre-flight weather briefing.

05:16:41 UTC

KSDC METAR
Williamson-Sodus Airport
Williamson/Sodus, New York, USA
Current

22 mins ago

KSDC 230455Z AUTO 00000KT 10SM OVC070 15/12 A3000 RMK AO2
Observed
Aug-23 @ 04:55 UTC
Visibility
10 SM
Flight Rules
VFR
Cloud Levels
  • Overcast at 7,000' AGL
Temperature
15°C / 59°F
Dewpoint
12°C / 54°F
Humidity
82%
Altimeter
30" Hg
Pressure
1015.92 hPa
Previous

42 mins ago

KSDC 230435Z AUTO 00000KT 10SM BKN070 15/12 A3000 RMK AO2
Observed
Aug-23 @ 04:35 UTC
Visibility
10 SM
Flight Rules
VFR
Cloud Levels
  • Broken at 7,000' AGL
Temperature
15°C / 59°F
Dewpoint
12°C / 54°F
Humidity
82%
Altimeter
30" Hg
Pressure
1015.92 hPa
Previous

1 hour ago

KSDC 230415Z AUTO 00000KT 10SM CLR 15/12 A2999 RMK AO2
Observed
Aug-23 @ 04:15 UTC
Visibility
10 SM
Flight Rules
VFR
Cloud Levels
  • Clear skies
Temperature
15°C / 59°F
Dewpoint
12°C / 54°F
Humidity
82%
Altimeter
29.99" Hg
Pressure
1015.62 hPa